Time;durP1;ratioP1;P1;durP2;ratioP2;P2;SDS_P1;SDS_P2;PMS_P1;PMS_P2;Temp;Humidity;BMP_temperature;BMP_pressure;BME280_temperature;BME280_humidity;BME280_pressure;Samples;Min_cycle;Max_cycle;Signal;HPM_P1;HPM_P2
2021/01/18 00:01:30;;;;;;;29.30;15.68;;;3.20;99.90;;;;;;5033168;28;20486;-69
2021/01/18 00:03:56;;;;;;;35.08;16.92;;;3.40;99.90;;;;;;5032788;28;20079;-68
2021/01/18 00:06:23;;;;;;;29.70;16.88;;;3.30;99.90;;;;;;5031358;28;20033;-68
2021/01/18 00:08:49;;;;;;;27.20;14.10;;;3.30;99.90;;;;;;5031343;28;20041;-68
2021/01/18 00:11:16;;;;;;;33.22;17.33;;;3.40;99.90;;;;;;5032300;28;20124;-69
2021/01/18 00:13:47;;;;;;;30.10;16.20;;;3.40;99.90;;;;;;5031704;28;20031;-69
2021/01/18 00:16:20;;;;;;;26.42;14.30;;;3.40;99.90;;;;;;5031793;28;20120;-70
2021/01/18 00:18:46;;;;;;;27.02;15.13;;;3.50;99.90;;;;;;5033067;28;20084;-69
2021/01/18 00:21:12;;;;;;;25.08;14.93;;;3.50;99.90;;;;;;5031382;28;20063;-69
2021/01/18 00:23:39;;;;;;;28.75;15.05;;;3.50;99.90;;;;;;5032121;28;20037;-69
2021/01/18 00:26:06;;;;;;;25.48;14.30;;;3.40;99.90;;;;;;5031440;28;20048;-69
2021/01/18 00:28:32;;;;;;;26.05;15.02;;;3.50;99.90;;;;;;5031817;28;20079;-69
2021/01/18 00:31:03;;;;;;;32.08;15.77;;;3.50;99.90;;;;;;5031421;28;20417;-69
2021/01/18 00:33:28;;;;;;;25.88;15.18;;;3.50;99.90;;;;;;5030787;28;20033;-69
2021/01/18 00:35:55;;;;;;;26.52;15.30;;;3.50;99.90;;;;;;5031372;28;20048;-69
2021/01/18 00:38:20;;;;;;;31.48;14.57;;;3.60;99.90;;;;;;5030364;28;20042;-69
2021/01/18 00:40:46;;;;;;;25.98;13.02;;;3.60;99.90;;;;;;5032628;28;20034;-69
2021/01/18 00:43:12;;;;;;;25.65;14.57;;;3.70;99.90;;;;;;5032392;28;20379;-69
2021/01/18 00:45:37;;;;;;;28.73;15.65;;;3.70;99.90;;;;;;5031762;28;20331;-68
2021/01/18 00:48:03;;;;;;;24.58;15.80;;;3.70;99.90;;;;;;5031948;28;20404;-69
2021/01/18 00:50:30;;;;;;;26.75;14.90;;;3.70;99.90;;;;;;5031309;28;20451;-69
2021/01/18 00:52:57;;;;;;;28.77;14.57;;;3.70;99.90;;;;;;5032187;28;20045;-69
2021/01/18 00:55:24;;;;;;;23.38;13.88;;;3.70;99.90;;;;;;5030149;28;20030;-69
2021/01/18 00:57:50;;;;;;;25.83;14.88;;;3.70;99.90;;;;;;5032263;28;20052;-69
2021/01/18 01:00:19;;;;;;;26.83;14.85;;;3.80;99.90;;;;;;5031855;28;20025;-69
2021/01/18 01:02:46;;;;;;;37.85;15.38;;;3.80;99.90;;;;;;5030513;28;20026;-69
2021/01/18 01:05:14;;;;;;;19.67;12.02;;;3.80;99.90;;;;;;5030525;28;20025;-68
2021/01/18 01:07:48;;;;;;;23.45;12.63;;;3.80;99.90;;;;;;5031463;28;20041;-68
2021/01/18 01:10:18;;;;;;;21.73;11.32;;;3.90;99.90;;;;;;5030188;28;20033;-69
2021/01/18 01:12:44;;;;;;;24.67;13.80;;;3.80;99.90;;;;;;5030364;28;20021;-69
2021/01/18 01:15:11;;;;;;;22.38;13.05;;;3.80;99.90;;;;;;5031674;28;20333;-69
2021/01/18 01:17:41;;;;;;;23.40;14.50;;;3.90;99.90;;;;;;5029615;28;20029;-69
2021/01/18 01:20:09;;;;;;;24.58;13.70;;;3.70;99.90;;;;;;5030677;28;20022;-69
2021/01/18 01:22:35;;;;;;;26.10;13.52;;;3.80;99.90;;;;;;5029261;28;20112;-68
2021/01/18 01:25:00;;;;;;;19.08;12.68;;;3.80;99.90;;;;;;5030295;28;20539;-69
2021/01/18 01:27:26;;;;;;;20.65;12.10;;;3.80;99.90;;;;;;5030965;28;20478;-68
2021/01/18 01:29:51;;;;;;;20.40;11.40;;;3.90;99.90;;;;;;5029655;28;20116;-70
2021/01/18 01:32:17;;;;;;;16.02;9.45;;;3.90;99.90;;;;;;5031062;28;20025;-69
2021/01/18 01:34:43;;;;;;;19.45;9.93;;;4.00;99.90;;;;;;5029368;28;20096;-68
2021/01/18 01:37:08;;;;;;;18.00;11.10;;;4.00;99.90;;;;;;5031290;28;20058;-68
2021/01/18 01:39:34;;;;;;;14.95;9.20;;;4.10;99.90;;;;;;5029332;28;20036;-70
2021/01/18 01:41:59;;;;;;;13.23;8.43;;;4.20;99.90;;;;;;5031391;28;20021;-70
2021/01/18 01:44:25;;;;;;;11.10;7.25;;;4.20;99.90;;;;;;5029318;28;20132;-69
2021/01/18 01:46:51;;;;;;;12.13;7.50;;;4.20;99.90;;;;;;5030017;28;20030;-69
2021/01/18 01:49:17;;;;;;;15.43;8.70;;;4.20;99.90;;;;;;5046346;28;20022;-69
2021/01/18 01:51:43;;;;;;;11.88;6.35;;;4.30;99.90;;;;;;5030346;28;20057;-70
2021/01/18 01:54:09;;;;;;;11.95;6.53;;;4.30;99.90;;;;;;5029770;28;20094;-70
2021/01/18 01:56:35;;;;;;;8.60;5.32;;;4.30;99.90;;;;;;5030430;28;20033;-69
2021/01/18 01:59:02;;;;;;;16.50;6.18;;;4.40;99.90;;;;;;5029642;28;20021;-70
2021/01/18 02:01:28;;;;;;;9.15;6.13;;;4.40;99.90;;;;;;5030324;28;20036;-70
2021/01/18 02:03:57;;;;;;;11.25;6.60;;;4.40;99.90;;;;;;5031099;28;20049;-70
2021/01/18 02:06:23;;;;;;;8.70;5.30;;;4.40;99.90;;;;;;5030388;28;20041;-69
2021/01/18 02:08:50;;;;;;;13.63;5.93;;;4.40;99.90;;;;;;5030991;28;20103;-69
2021/01/18 02:11:15;;;;;;;9.18;5.45;;;4.50;99.90;;;;;;5030890;28;20036;-68
2021/01/18 02:14:28;;;;;;;8.15;6.00;;;4.50;99.90;;;;;;5028977;28;20025;-69
2021/01/18 02:17:07;;;;;;;10.45;6.32;;;4.40;99.90;;;;;;5030906;28;20051;-70
2021/01/18 02:20:09;;;;;;;8.93;5.25;;;4.40;99.90;;;;;;5028871;28;20035;-68
2021/01/18 02:22:53;;;;;;;11.77;6.45;;;4.40;99.90;;;;;;5017296;28;20506;-68
2021/01/18 02:25:30;;;;;;;11.82;5.72;;;4.40;99.90;;;;;;5030613;28;20032;-69
2021/01/18 02:28:18;;;;;;;9.90;6.53;;;4.30;99.90;;;;;;5029643;28;20124;-69
2021/01/18 02:30:58;;;;;;;13.10;7.10;;;4.40;99.90;;;;;;5031679;28;20034;-69
2021/01/18 02:33:36;;;;;;;12.45;7.20;;;4.40;99.90;;;;;;5032768;28;20482;-68
2021/01/18 02:36:30;;;;;;;13.65;6.85;;;4.40;99.90;;;;;;5034666;28;20037;-69
2021/01/18 02:39:46;;;;;;;8.23;5.15;;;4.40;99.90;;;;;;5033512;28;20045;-68
2021/01/18 02:42:18;;;;;;;12.63;6.78;;;4.40;99.90;;;;;;5025404;28;20069;-69
2021/01/18 02:44:48;;;;;;;11.90;5.93;;;4.50;99.90;;;;;;5034025;28;20207;-69
2021/01/18 02:47:17;;;;;;;7.32;5.43;;;4.40;99.90;;;;;;5034499;28;20124;-68
2021/01/18 02:49:43;;;;;;;11.65;7.22;;;4.50;99.90;;;;;;5033934;28;20026;-69
2021/01/18 02:52:14;;;;;;;8.27;5.47;;;4.50;99.90;;;;;;5032959;28;20025;-70
2021/01/18 02:54:40;;;;;;;9.10;6.00;;;4.60;99.90;;;;;;5032443;28;20033;-70
2021/01/18 02:57:09;;;;;;;10.20;4.80;;;4.60;99.90;;;;;;5034333;28;20257;-70
2021/01/18 02:59:35;;;;;;;8.82;5.90;;;4.50;99.90;;;;;;5033719;28;20041;-67
2021/01/18 03:02:42;;;;;;;7.88;5.30;;;4.50;99.90;;;;;;5034231;28;20026;-68
2021/01/18 03:05:15;;;;;;;8.98;4.47;;;4.50;99.90;;;;;;5032799;28;20044;-68
2021/01/18 03:07:53;;;;;;;12.60;5.15;;;4.50;99.90;;;;;;5033676;28;20065;-69
2021/01/18 03:10:31;;;;;;;7.32;3.72;;;4.60;99.90;;;;;;5032709;28;20029;-69
2021/01/18 03:13:17;;;;;;;6.15;3.20;;;4.60;99.90;;;;;;5033936;28;20061;-69
2021/01/18 03:15:47;;;;;;;7.57;3.13;;;4.50;99.90;;;;;;5033028;28;20033;-70
2021/01/18 03:18:22;;;;;;;7.20;3.20;;;4.60;99.90;;;;;;5034062;28;20434;-70
2021/01/18 03:20:49;;;;;;;3.67;2.75;;;4.50;99.90;;;;;;5033130;28;20029;-69
2021/01/18 03:23:15;;;;;;;4.88;3.53;;;4.60;99.90;;;;;;5032413;28;20044;-69
2021/01/18 03:25:56;;;;;;;8.13;4.07;;;4.50;99.90;;;;;;5031802;28;20029;-68
2021/01/18 03:28:23;;;;;;;4.38;3.10;;;4.60;99.90;;;;;;5033836;28;20091;-69
2021/01/18 03:30:51;;;;;;;10.05;3.25;;;4.60;99.90;;;;;;5031797;28;20033;-68
2021/01/18 03:33:17;;;;;;;6.93;3.58;;;4.60;99.90;;;;;;5033464;28;20048;-69
2021/01/18 03:35:44;;;;;;;6.05;3.63;;;4.60;99.90;;;;;;5031688;28;20505;-69
2021/01/18 03:38:10;;;;;;;4.75;3.58;;;4.60;99.90;;;;;;5033597;28;20087;-69
2021/01/18 03:40:37;;;;;;;5.93;3.55;;;4.70;99.90;;;;;;5032577;28;20394;-69
2021/01/18 03:43:06;;;;;;;6.93;4.47;;;4.60;99.90;;;;;;5030762;28;20103;-68
2021/01/18 03:45:37;;;;;;;7.05;4.60;;;4.60;99.90;;;;;;5032862;28;20139;-68
2021/01/18 03:48:04;;;;;;;9.13;5.43;;;4.50;99.90;;;;;;5032094;28;20029;-69
2021/01/18 03:50:30;;;;;;;17.73;7.43;;;4.60;99.90;;;;;;5032730;28;20056;-69
2021/01/18 03:52:55;;;;;;;14.10;7.45;;;4.60;99.90;;;;;;5033228;28;20025;-70
2021/01/18 03:55:22;;;;;;;12.55;9.07;;;4.60;99.90;;;;;;5032959;28;20471;-71
2021/01/18 03:57:49;;;;;;;9.98;7.57;;;4.40;99.90;;;;;;5031200;28;20025;-70
2021/01/18 04:00:17;;;;;;;7.97;6.03;;;4.40;99.90;;;;;;5033204;28;20052;-71
2021/01/18 04:02:45;;;;;;;9.65;5.07;;;4.40;99.90;;;;;;5030994;28;20065;-70
2021/01/18 04:05:11;;;;;;;9.82;5.68;;;4.40;99.90;;;;;;5033663;28;20084;-71
2021/01/18 04:07:36;;;;;;;6.82;5.63;;;4.50;99.90;;;;;;5032146;28;20061;-70
2021/01/18 04:10:03;;;;;;;11.95;6.45;;;4.50;99.90;;;;;;5032725;28;20033;-71
2021/01/18 04:12:29;;;;;;;9.48;4.82;;;4.50;99.90;;;;;;5031356;28;20036;-71
2021/01/18 04:14:55;;;;;;;10.02;5.03;;;4.50;99.90;;;;;;5032901;28;20030;-70
2021/01/18 04:17:20;;;;;;;11.10;6.32;;;4.50;99.90;;;;;;5031632;28;20078;-71
2021/01/18 04:19:46;;;;;;;10.30;5.80;;;4.60;99.90;;;;;;5032189;28;20112;-71
2021/01/18 04:22:12;;;;;;;16.77;8.35;;;4.50;99.90;;;;;;5032729;28;20021;-71
2021/01/18 04:24:37;;;;;;;10.43;6.40;;;4.40;99.90;;;;;;5030834;28;20096;-71
2021/01/18 04:27:07;;;;;;;10.68;6.63;;;4.50;99.90;;;;;;5032341;28;20025;-71
2021/01/18 04:29:33;;;;;;;8.70;5.75;;;4.50;99.90;;;;;;5031746;28;20025;-70
2021/01/18 04:31:58;;;;;;;10.90;6.30;;;4.50;99.90;;;;;;5032552;28;20041;-70
2021/01/18 04:34:24;;;;;;;8.98;4.35;;;4.50;99.90;;;;;;5031027;28;20384;-71
2021/01/18 04:36:49;;;;;;;8.75;5.35;;;4.50;99.90;;;;;;5031730;28;20137;-71
2021/01/18 04:39:15;;;;;;;9.85;5.00;;;4.50;99.90;;;;;;5032436;28;20025;-71
2021/01/18 04:41:43;;;;;;;12.77;4.82;;;4.60;99.90;;;;;;5030474;28;20025;-71
2021/01/18 04:44:12;;;;;;;5.38;3.40;;;4.60;99.90;;;;;;5032218;28;20039;-71
2021/01/18 04:46:43;;;;;;;13.82;4.60;;;4.50;99.90;;;;;;5030373;28;20144;-71
2021/01/18 04:49:10;;;;;;;9.15;4.90;;;4.50;99.90;;;;;;5030935;28;20029;-71
2021/01/18 04:51:46;;;;;;;5.95;3.83;;;4.60;99.90;;;;;;5030013;28;20471;-71
2021/01/18 04:54:17;;;;;;;6.50;4.22;;;4.60;99.90;;;;;;5031576;28;20036;-71
2021/01/18 04:57:00;;;;;;;9.90;4.18;;;4.70;99.90;;;;;;5031478;28;20025;-71
2021/01/18 04:59:31;;;;;;;9.43;4.45;;;4.70;99.90;;;;;;5032109;28;20033;-70
2021/01/18 05:02:12;;;;;;;10.98;4.65;;;4.70;99.90;;;;;;5031933;28;20026;-70
2021/01/18 05:04:43;;;;;;;9.32;4.47;;;4.70;99.90;;;;;;5031501;28;20127;-71
2021/01/18 05:07:35;;;;;;;13.50;4.68;;;4.80;99.90;;;;;;5030804;28;20034;-71
2021/01/18 05:10:06;;;;;;;13.70;4.13;;;4.70;99.90;;;;;;5011440;28;20439;-70
2021/01/18 05:12:35;;;;;;;12.80;4.63;;;4.70;99.90;;;;;;5031805;28;20033;-70
2021/01/18 05:15:08;;;;;;;7.25;4.15;;;4.80;99.90;;;;;;5031874;28;20121;-71
2021/01/18 05:17:47;;;;;;;8.35;4.28;;;4.70;99.90;;;;;;5030040;28;20059;-71
2021/01/18 05:20:19;;;;;;;7.53;5.00;;;4.70;99.90;;;;;;5031110;28;20072;-71
2021/01/18 05:22:50;;;;;;;13.23;4.78;;;4.70;99.90;;;;;;5031182;28;20040;-68
2021/01/18 05:25:17;;;;;;;9.00;5.20;;;4.70;99.90;;;;;;5031098;28;20033;-68
2021/01/18 05:28:09;;;;;;;10.88;5.38;;;4.70;99.90;;;;;;5029105;28;20033;-68
2021/01/18 05:30:41;;;;;;;10.73;4.60;;;4.70;99.90;;;;;;5029696;28;20031;-69
2021/01/18 05:33:14;;;;;;;7.05;4.93;;;4.60;99.90;;;;;;5030550;28;20131;-70
2021/01/18 05:35:50;;;;;;;9.13;4.85;;;4.70;99.90;;;;;;5030381;28;20099;-69
2021/01/18 05:38:16;;;;;;;9.38;5.25;;;4.60;99.90;;;;;;5029943;28;20049;-70
2021/01/18 05:40:50;;;;;;;10.35;5.85;;;4.50;99.90;;;;;;5030708;28;20055;-70
2021/01/18 05:43:18;;;;;;;11.27;5.05;;;4.60;99.90;;;;;;5029792;28;20038;-70
2021/01/18 05:45:45;;;;;;;11.18;5.90;;;4.50;99.90;;;;;;5030370;28;20025;-71
2021/01/18 05:48:13;;;;;;;12.77;6.60;;;4.50;99.90;;;;;;5029001;28;20075;-71
2021/01/18 05:50:40;;;;;;;14.88;5.93;;;4.50;99.90;;;;;;5028853;28;20025;-69
2021/01/18 05:53:29;;;;;;;11.90;5.72;;;4.40;99.90;;;;;;5029496;28;20029;-68
2021/01/18 05:55:54;;;;;;;9.52;5.38;;;4.50;99.90;;;;;;5029387;28;20036;-72
2021/01/18 05:58:30;;;;;;;10.23;5.35;;;4.50;99.90;;;;;;5030907;28;20025;-71
2021/01/18 06:01:00;;;;;;;10.38;5.85;;;4.40;99.90;;;;;;5029048;28;20040;-71
2021/01/18 06:03:30;;;;;;;15.23;5.75;;;4.50;99.90;;;;;;5030649;28;20045;-70
2021/01/18 06:05:56;;;;;;;12.10;6.22;;;4.50;99.90;;;;;;5028445;28;20518;-71
2021/01/18 06:08:24;;;;;;;12.52;5.38;;;4.50;99.90;;;;;;5031196;28;20029;-71
2021/01/18 06:10:51;;;;;;;9.27;5.43;;;4.40;99.90;;;;;;5029082;28;20033;-71
2021/01/18 06:13:22;;;;;;;10.25;5.00;;;4.40;99.90;;;;;;5030626;28;20040;-71
2021/01/18 06:15:49;;;;;;;11.20;5.30;;;4.40;99.90;;;;;;5028667;28;20411;-71
2021/01/18 06:18:16;;;;;;;9.15;4.78;;;4.50;99.90;;;;;;5030466;28;20025;-70
2021/01/18 06:20:43;;;;;;;16.50;5.72;;;4.40;99.90;;;;;;5029983;28;20336;-71
2021/01/18 06:23:09;;;;;;;6.03;3.65;;;4.40;99.90;;;;;;5030835;28;20114;-70
2021/01/18 06:25:37;;;;;;;7.55;4.90;;;4.50;99.90;;;;;;5029290;28;20032;-70
2021/01/18 06:28:03;;;;;;;10.10;3.88;;;4.50;99.90;;;;;;5030403;28;20017;-71
2021/01/18 06:30:30;;;;;;;5.90;4.05;;;4.40;99.90;;;;;;5029394;28;20037;-71
2021/01/18 06:33:12;;;;;;;10.95;4.50;;;4.40;99.90;;;;;;5028466;28;20029;-71
2021/01/18 06:35:38;;;;;;;14.02;4.35;;;4.40;99.90;;;;;;5029316;28;20056;-71
2021/01/18 06:38:05;;;;;;;5.63;3.90;;;4.30;99.90;;;;;;5028892;28;20046;-71
2021/01/18 06:40:39;;;;;;;7.15;3.95;;;4.40;99.90;;;;;;5029041;28;20471;-70
2021/01/18 06:43:10;;;;;;;7.55;4.35;;;4.30;99.90;;;;;;5029963;28;20037;-70
2021/01/18 06:45:38;;;;;;;5.55;3.95;;;4.40;99.90;;;;;;5028733;28;20083;-72
2021/01/18 06:48:07;;;;;;;9.90;4.32;;;4.30;99.90;;;;;;5030843;28;20113;-72
2021/01/18 06:50:38;;;;;;;8.48;3.97;;;4.30;99.90;;;;;;5028793;28;20057;-71
2021/01/18 06:53:15;;;;;;;9.88;3.90;;;4.40;99.90;;;;;;5029990;28;20104;-71
2021/01/18 06:56:25;;;;;;;6.70;3.22;;;4.40;99.90;;;;;;5028175;28;20112;-70
2021/01/18 06:59:04;;;;;;;7.40;4.32;;;4.30;99.90;;;;;;5028144;28;20025;-71
2021/01/18 07:01:36;;;;;;;8.40;4.45;;;4.30;99.90;;;;;;5028510;28;20021;-71
2021/01/18 07:04:11;;;;;;;10.25;4.22;;;4.30;99.90;;;;;;5028180;28;20041;-71
2021/01/18 07:06:44;;;;;;;12.40;4.15;;;4.30;99.90;;;;;;5028974;28;20030;-71
2021/01/18 07:09:10;;;;;;;14.63;4.30;;;4.40;99.90;;;;;;5030050;28;20048;-71
2021/01/18 07:11:37;;;;;;;10.68;4.47;;;4.40;99.90;;;;;;5030657;28;20070;-72
2021/01/18 07:14:08;;;;;;;7.03;4.72;;;4.40;99.90;;;;;;5029834;28;20076;-72
2021/01/18 07:16:34;;;;;;;8.60;3.58;;;4.20;99.90;;;;;;5031554;28;20029;-70
2021/01/18 07:19:03;;;;;;;9.20;4.50;;;4.20;99.90;;;;;;5031719;28;20224;-70
2021/01/18 07:21:32;;;;;;;8.93;4.30;;;4.20;99.90;;;;;;5032320;28;20429;-72
2021/01/18 07:24:00;;;;;;;10.25;4.50;;;4.20;99.90;;;;;;5033243;28;20132;-72
2021/01/18 07:26:46;;;;;;;7.70;3.80;;;4.30;99.90;;;;;;5032124;28;20477;-72
2021/01/18 07:29:14;;;;;;;9.93;4.10;;;4.30;99.90;;;;;;5033662;28;20021;-71
2021/01/18 07:31:45;;;;;;;8.70;4.28;;;4.20;99.90;;;;;;5032241;28;20021;-72
2021/01/18 07:34:20;;;;;;;8.10;3.88;;;4.20;99.90;;;;;;5033554;28;20052;-71
2021/01/18 07:36:46;;;;;;;8.20;4.93;;;5.20;99.90;;;;;;5030622;28;20057;-70
2021/01/18 07:39:35;;;;;;;9.43;3.53;;;4.80;99.90;;;;;;5031893;28;20033;-71
2021/01/18 07:42:01;;;;;;;9.20;3.40;;;4.50;99.90;;;;;;5019305;28;20037;-72
2021/01/18 07:44:46;;;;;;;9.95;3.75;;;4.40;99.90;;;;;;5023724;28;20037;-73
2021/01/18 07:47:13;;;;;;;7.80;3.38;;;4.30;99.90;;;;;;5029567;28;20025;-71
2021/01/18 07:49:44;;;;;;;6.22;3.53;;;4.30;99.90;;;;;;5032533;28;20429;-70
2021/01/18 07:52:19;;;;;;;9.07;3.30;;;4.20;99.90;;;;;;5020508;28;20391;-71
2021/01/18 07:54:48;;;;;;;9.57;3.63;;;4.20;99.90;;;;;;5023083;28;20476;-71
2021/01/18 07:57:30;;;;;;;7.90;3.50;;;4.10;99.90;;;;;;5024990;28;20021;-72
2021/01/18 08:00:18;;;;;;;7.13;4.40;;;4.20;99.90;;;;;;5020619;28;20021;-73
2021/01/18 08:02:48;;;;;;;7.82;3.88;;;4.20;99.90;;;;;;5031603;28;20119;-70
2021/01/18 08:05:20;;;;;;;10.55;4.88;;;4.30;99.90;;;;;;5031271;28;20044;-70
2021/01/18 08:08:05;;;;;;;;;;;4.20;99.90;;;;;;5030511;28;20025;-71
2021/01/18 08:10:56;;;;;;;8.32;3.65;;;6.00;99.90;;;;;;5047262;28;19905;-71
2021/01/18 08:13:42;;;;;;;7.82;3.47;;;5.00;99.90;;;;;;5030453;28;20029;-72
2021/01/18 08:16:08;;;;;;;9.43;3.83;;;4.60;99.90;;;;;;5030401;28;20412;-72
2021/01/18 08:18:34;;;;;;;8.45;3.72;;;4.50;99.90;;;;;;5029443;28;20121;-71
2021/01/18 08:21:00;;;;;;;8.73;3.97;;;4.40;99.90;;;;;;5029046;28;20029;-72
2021/01/18 08:23:44;;;;;;;10.85;3.95;;;4.40;99.90;;;;;;5032330;28;20040;-71
2021/01/18 08:26:10;;;;;;;15.02;4.45;;;4.40;99.90;;;;;;5026689;28;20127;-71
2021/01/18 08:28:36;;;;;;;12.38;4.93;;;4.40;99.90;;;;;;5030866;28;20025;-71
2021/01/18 08:31:03;;;;;;;7.45;4.28;;;4.40;99.90;;;;;;5026609;28;20063;-72
2021/01/18 08:33:28;;;;;;;11.40;3.13;;;4.40;99.90;;;;;;5029649;28;20052;-72
2021/01/18 08:35:56;;;;;;;7.45;3.67;;;4.40;99.90;;;;;;5029273;28;20025;-70
2021/01/18 08:38:28;;;;;;;9.55;4.25;;;4.30;99.90;;;;;;5030456;28;20129;-69
2021/01/18 08:41:03;;;;;;;7.75;4.10;;;4.40;99.90;;;;;;5029818;28;20029;-71
2021/01/18 08:43:53;;;;;;;11.27;3.83;;;4.40;99.90;;;;;;5030759;28;20042;-71
2021/01/18 08:46:39;;;;;;;8.88;3.47;;;4.40;99.90;;;;;;5027318;28;20117;-71
2021/01/18 08:49:33;;;;;;;10.50;4.30;;;4.40;99.90;;;;;;5029374;28;20057;-71
2021/01/18 08:52:00;;;;;;;13.27;3.40;;;4.30;99.90;;;;;;5029082;28;20033;-70
2021/01/18 08:54:31;;;;;;;8.70;4.15;;;4.40;99.90;;;;;;5028252;28;20121;-72
2021/01/18 08:57:22;;;;;;;17.50;5.70;;;4.40;99.90;;;;;;5029211;28;20440;-70
2021/01/18 09:00:09;;;;;;;19.25;6.35;;;4.50;99.90;;;;;;5030065;28;20030;-70
2021/01/18 09:02:36;;;;;;;9.13;4.90;;;4.50;99.90;;;;;;5030923;28;20535;-71
2021/01/18 09:05:12;;;;;;;7.00;3.20;;;4.40;99.90;;;;;;5029470;28;20079;-70
2021/01/18 09:07:41;;;;;;;6.53;3.67;;;4.30;99.90;;;;;;5031527;28;20036;-71
2021/01/18 09:10:19;;;;;;;8.52;4.22;;;4.30;99.90;;;;;;5029371;28;20026;-71
2021/01/18 09:12:45;;;;;;;12.75;4.55;;;4.30;99.90;;;;;;5029889;28;20025;-71
2021/01/18 09:15:12;;;;;;;8.43;3.88;;;4.30;99.90;;;;;;5030675;28;20187;-71
2021/01/18 09:17:38;;;;;;;13.10;4.80;;;4.40;99.90;;;;;;5031399;28;20045;-71
2021/01/18 09:20:06;;;;;;;9.63;3.35;;;4.50;99.90;;;;;;5030584;28;20048;-71
2021/01/18 09:22:43;;;;;;;9.18;4.07;;;4.50;99.90;;;;;;5030179;28;20489;-71
2021/01/18 09:25:11;;;;;;;11.48;3.65;;;4.50;99.90;;;;;;5026171;28;20254;-71
2021/01/18 09:27:38;;;;;;;7.90;4.32;;;4.40;99.90;;;;;;5029841;28;20025;-72
2021/01/18 09:30:15;;;;;;;8.50;4.45;;;4.40;99.90;;;;;;5030239;28;20370;-71
2021/01/18 09:32:55;;;;;;;10.57;3.47;;;4.50;99.90;;;;;;5029911;28;20059;-72
2021/01/18 09:35:20;;;;;;;13.25;4.38;;;4.60;99.90;;;;;;5029919;28;20039;-72
2021/01/18 09:37:49;;;;;;;8.77;4.03;;;4.50;99.90;;;;;;5029717;28;20136;-71
2021/01/18 09:40:16;;;;;;;10.70;4.18;;;4.50;99.90;;;;;;5029952;28;20037;-71
2021/01/18 09:42:50;;;;;;;9.93;3.85;;;4.50;99.90;;;;;;5029139;28;20049;-72
2021/01/18 09:45:16;;;;;;;9.32;5.13;;;4.60;99.90;;;;;;5030441;28;20475;-72
2021/01/18 09:47:44;;;;;;;10.70;5.05;;;4.50;99.90;;;;;;5030753;28;20040;-72
2021/01/18 09:50:15;;;;;;;12.18;4.68;;;4.50;99.90;;;;;;5027553;28;20088;-72
2021/01/18 09:52:46;;;;;;;9.00;4.10;;;4.50;99.90;;;;;;5029571;28;20022;-73
2021/01/18 09:55:16;;;;;;;14.63;5.10;;;4.50;99.90;;;;;;5027600;28;20253;-72
2021/01/18 09:57:57;;;;;;;9.30;4.22;;;4.40;99.90;;;;;;5027921;28;20025;-72
2021/01/18 10:00:26;;;;;;;15.95;5.13;;;4.50;99.90;;;;;;5029420;28;20026;-73
2021/01/18 10:02:54;;;;;;;9.23;4.57;;;4.60;99.90;;;;;;5028843;28;20025;-72
2021/01/18 10:05:28;;;;;;;16.77;5.32;;;4.50;99.90;;;;;;5030419;28;20068;-72
2021/01/18 10:07:55;;;;;;;7.65;4.05;;;4.50;99.90;;;;;;5030399;28;20025;-70
2021/01/18 10:10:21;;;;;;;6.72;4.45;;;4.60;99.90;;;;;;5028797;28;20061;-71
2021/01/18 10:12:54;;;;;;;10.43;4.93;;;4.70;99.90;;;;;;5029183;28;20048;-72
2021/01/18 10:15:26;;;;;;;14.93;6.38;;;4.80;99.90;;;;;;5029573;28;20083;-73
2021/01/18 10:17:53;;;;;;;14.30;7.95;;;4.80;99.90;;;;;;5029033;28;20509;-72
2021/01/18 10:20:24;;;;;;;15.60;6.95;;;4.90;99.90;;;;;;5029851;28;20076;-73
2021/01/18 10:22:50;;;;;;;14.32;6.07;;;5.00;99.90;;;;;;5029960;28;20151;-72
2021/01/18 10:25:18;;;;;;;17.52;6.90;;;5.10;99.90;;;;;;5027802;28;20071;-71
2021/01/18 10:27:52;;;;;;;8.80;4.55;;;5.40;99.90;;;;;;5029397;28;20120;-71
2021/01/18 10:30:23;;;;;;;12.32;5.72;;;5.90;99.90;;;;;;5028915;28;20156;-72
2021/01/18 10:32:51;;;;;;;22.55;5.57;;;6.10;99.90;;;;;;5028923;28;20030;-72
2021/01/18 10:35:27;;;;;;;7.97;4.25;;;6.40;99.90;;;;;;5029272;28;20045;-72
2021/01/18 10:37:53;;;;;;;10.38;5.55;;;6.70;99.90;;;;;;5028686;28;20050;-72
2021/01/18 10:40:23;;;;;;;7.95;5.05;;;6.80;99.90;;;;;;5028502;28;20040;-72
2021/01/18 10:42:53;;;;;;;9.85;5.03;;;6.90;99.90;;;;;;5030333;28;20112;-72
2021/01/18 10:45:25;;;;;;;8.15;5.55;;;7.20;99.90;;;;;;5027918;28;20095;-71
2021/01/18 10:47:59;;;;;;;10.45;5.78;;;7.60;99.90;;;;;;5030318;28;20032;-71
2021/01/18 10:50:29;;;;;;;15.32;5.28;;;7.30;99.90;;;;;;5010568;28;20034;-72
2021/01/18 10:53:03;;;;;;;10.63;5.22;;;6.90;99.90;;;;;;5012255;28;20080;-71
2021/01/18 10:55:29;;;;;;;9.70;5.60;;;6.80;99.90;;;;;;5024732;28;20021;-71
2021/01/18 10:57:54;;;;;;;14.00;5.78;;;6.50;99.90;;;;;;5033382;28;20398;-71
2021/01/18 11:00:22;;;;;;;11.23;5.35;;;6.30;99.90;;;;;;5031919;28;20420;-71
2021/01/18 11:03:07;;;;;;;10.25;4.93;;;6.30;99.90;;;;;;5032323;28;20060;-71
2021/01/18 11:05:36;;;;;;;13.88;5.68;;;6.30;99.90;;;;;;5035087;28;20054;-71
2021/01/18 11:08:07;;;;;;;11.25;5.90;;;6.20;99.90;;;;;;5031476;28;20146;-71
2021/01/18 11:10:51;;;;;;;9.25;5.45;;;6.20;99.90;;;;;;5032251;28;20025;-73
2021/01/18 11:13:18;;;;;;;13.50;6.40;;;6.10;99.90;;;;;;5032452;28;20029;-71
2021/01/18 11:15:47;;;;;;;16.10;6.38;;;5.80;99.90;;;;;;5032080;28;20021;-72
2021/01/18 11:18:14;;;;;;;9.93;5.70;;;5.80;99.90;;;;;;5031449;28;20533;-71
2021/01/18 11:20:45;;;;;;;13.70;5.70;;;5.70;99.90;;;;;;5033137;28;20034;-73
2021/01/18 11:23:11;;;;;;;8.63;5.57;;;5.70;99.90;;;;;;5031184;28;20025;-72
2021/01/18 11:25:38;;;;;;;12.95;6.03;;;5.50;99.90;;;;;;5030489;28;20383;-72
2021/01/18 11:28:15;;;;;;;13.18;5.15;;;5.50;99.90;;;;;;5032648;28;20036;-73
2021/01/18 11:30:42;;;;;;;13.88;6.32;;;5.50;99.90;;;;;;5033083;28;20029;-73
2021/01/18 11:33:09;;;;;;;13.50;5.68;;;5.60;99.90;;;;;;5031372;28;20026;-72
2021/01/18 11:35:35;;;;;;;10.65;5.90;;;5.50;99.90;;;;;;5032175;28;20040;-72
2021/01/18 11:38:02;;;;;;;9.13;6.05;;;5.50;99.90;;;;;;5032438;28;20045;-73
2021/01/18 11:40:29;;;;;;;17.02;7.07;;;5.50;99.90;;;;;;5032326;28;20021;-74
2021/01/18 11:43:01;;;;;;;12.80;6.68;;;5.50;99.90;;;;;;5032912;28;20029;-73
2021/01/18 11:45:27;;;;;;;11.07;6.40;;;5.50;99.90;;;;;;5031259;28;20061;-73
2021/01/18 11:47:54;;;;;;;12.75;6.20;;;5.50;99.90;;;;;;5032053;28;20095;-73
2021/01/18 11:50:20;;;;;;;13.13;6.82;;;5.60;99.90;;;;;;5030984;28;20118;-73
2021/01/18 11:52:56;;;;;;;10.27;6.72;;;5.60;99.90;;;;;;5031027;28;20033;-73
2021/01/18 11:55:22;;;;;;;11.25;6.03;;;5.40;99.90;;;;;;5027324;28;20101;-73
2021/01/18 11:57:50;;;;;;;15.18;6.28;;;5.50;99.90;;;;;;5032648;28;20068;-73
2021/01/18 12:00:27;;;;;;;10.25;6.13;;;5.50;99.90;;;;;;5032051;28;20424;-72
2021/01/18 12:02:54;;;;;;;13.32;7.65;;;5.70;99.90;;;;;;5031554;28;20029;-73
2021/01/18 12:05:24;;;;;;;13.95;6.70;;;5.90;99.90;;;;;;5032150;28;20164;-72
2021/01/18 12:07:50;;;;;;;13.45;7.05;;;5.90;99.90;;;;;;5032708;28;20108;-72
2021/01/18 12:10:16;;;;;;;12.13;6.80;;;6.00;99.90;;;;;;5032232;28;20056;-72
2021/01/18 12:12:42;;;;;;;12.98;5.93;;;6.20;99.90;;;;;;5033575;28;20044;-71
2021/01/18 12:15:08;;;;;;;14.15;6.97;;;6.30;99.90;;;;;;5032399;28;20042;-72
2021/01/18 12:17:40;;;;;;;8.18;4.95;;;6.50;99.90;;;;;;5023467;28;20025;-73
2021/01/18 12:20:08;;;;;;;11.98;5.88;;;6.70;99.90;;;;;;5047363;28;20025;-72
2021/01/18 12:22:33;;;;;;;12.10;6.43;;;6.80;99.90;;;;;;5021144;28;20026;-72
2021/01/18 12:24:59;;;;;;;18.58;7.70;;;6.70;99.90;;;;;;5031700;28;20128;-69
2021/01/18 12:27:25;;;;;;;13.90;6.15;;;6.80;99.90;;;;;;5024825;28;20022;-70
2021/01/18 12:29:50;;;;;;;14.88;6.43;;;6.70;99.90;;;;;;5025090;28;20021;-77
2021/01/18 12:32:16;;;;;;;10.70;6.35;;;6.70;99.90;;;;;;5022594;28;20029;-70
2021/01/18 12:34:42;;;;;;;11.70;6.22;;;6.60;99.90;;;;;;5029298;28;20029;-70
2021/01/18 12:37:08;;;;;;;15.07;7.13;;;6.60;99.90;;;;;;5033075;28;20045;-70
2021/01/18 12:39:33;;;;;;;13.32;6.45;;;6.60;99.90;;;;;;5041245;28;20037;-67
2021/01/18 12:42:02;;;;;;;13.18;6.65;;;6.60;99.90;;;;;;5038557;28;20034;-71
2021/01/18 12:44:28;;;;;;;12.57;6.88;;;6.80;99.90;;;;;;5028165;28;20041;-70
2021/01/18 12:47:02;;;;;;;13.57;6.43;;;7.00;99.90;;;;;;5046845;28;20033;-68
2021/01/18 12:49:28;;;;;;;13.65;6.70;;;7.10;99.90;;;;;;5030708;28;20036;-69
2021/01/18 12:51:54;;;;;;;20.75;8.27;;;7.10;99.90;;;;;;5034439;28;20030;-71
2021/01/18 12:54:20;;;;;;;11.93;7.10;;;7.10;99.90;;;;;;5029164;28;20671;-73
2021/01/18 12:56:45;;;;;;;21.45;6.90;;;7.20;99.90;;;;;;5024036;28;20151;-72
2021/01/18 12:59:12;;;;;;;16.25;7.20;;;7.20;99.90;;;;;;5020110;28;20121;-72
2021/01/18 13:01:39;;;;;;;10.68;7.18;;;7.20;99.90;;;;;;5026247;28;20052;-73
2021/01/18 13:04:05;;;;;;;18.48;6.65;;;7.20;99.90;;;;;;5023018;28;20376;-70
2021/01/18 13:06:42;;;;;;;11.23;6.35;;;7.30;99.90;;;;;;5022003;28;20030;-72
2021/01/18 13:09:12;;;;;;;12.18;5.72;;;7.40;99.90;;;;;;5015917;28;20104;-71